createdAt,value
2018-04-01T00:01:08.563Z,76.02
2018-04-01T00:03:35.606Z,76.32
2018-04-01T00:06:02.651Z,75.95
2018-04-01T00:08:29.612Z,76.04
2018-04-01T00:10:56.583Z,76.10
2018-04-01T00:13:23.510Z,76.47
2018-04-01T00:15:50.397Z,76.37
2018-04-01T00:18:17.371Z,76.32
2018-04-01T00:20:44.311Z,76.12
2018-04-01T00:23:11.241Z,76.31
2018-04-01T00:25:38.183Z,76.45
2018-04-01T00:28:05.196Z,76.54
2018-04-01T00:30:32.183Z,76.51
2018-04-01T00:32:59.080Z,76.80
2018-04-01T00:35:26.038Z,76.86
2018-04-01T00:37:53.031Z,76.87
2018-04-01T00:40:20.027Z,76.99
2018-04-01T00:42:46.982Z,77.36
2018-04-01T00:45:13.924Z,77.30
2018-04-01T00:47:40.916Z,77.33
2018-04-01T00:50:07.777Z,77.29
2018-04-01T00:52:34.705Z,77.61
2018-04-01T00:55:01.714Z,77.58
2018-04-01T00:57:28.596Z,77.84
2018-04-01T00:59:55.605Z,78.02
2018-04-01T01:02:22.589Z,78.36
2018-04-01T01:04:49.508Z,78.57
2018-04-01T01:07:16.453Z,78.63
2018-04-01T01:09:44.399Z,78.62
2018-04-01T01:12:11.306Z,78.70
2018-04-01T01:14:38.206Z,78.53
2018-04-01T01:17:05.100Z,78.56
2018-04-01T01:19:32.123Z,78.26
2018-04-01T01:21:59.023Z,78.25
2018-04-01T01:24:26.577Z,78.09
2018-04-01T01:26:53.595Z,78.17
2018-04-01T01:29:20.497Z,78.22
2018-04-01T01:31:47.439Z,78.39
2018-04-01T01:34:19.277Z,78.66
2018-04-01T01:36:46.312Z,78.53
2018-04-01T01:39:13.284Z,78.43
2018-04-01T01:41:40.180Z,78.33
2018-04-01T01:44:08.485Z,77.91
2018-04-01T01:46:35.408Z,77.85
2018-04-01T01:49:02.324Z,78.04
2018-04-01T01:51:29.240Z,77.94
2018-04-01T01:53:56.134Z,77.96
2018-04-01T01:56:23.079Z,78.06
2018-04-01T01:58:50.031Z,77.56
2018-04-01T02:01:16.955Z,77.52
2018-04-01T02:03:43.900Z,77.78
2018-04-01T02:06:10.815Z,77.96
2018-04-01T02:08:37.833Z,78.03
2018-04-01T02:11:04.788Z,78.10
2018-04-01T02:13:31.767Z,77.74
2018-04-01T02:15:58.680Z,77.33
2018-04-01T02:18:25.613Z,77.49
2018-04-01T02:20:52.598Z,77.23
2018-04-01T02:23:19.515Z,77.18
2018-04-01T02:25:46.550Z,77.17
2018-04-01T02:28:13.511Z,77.46
2018-04-01T02:30:40.485Z,77.52
2018-04-01T02:33:07.469Z,77.52
2018-04-01T02:35:34.486Z,77.29
2018-04-01T02:38:01.417Z,77.66
2018-04-01T02:40:28.307Z,77.52
2018-04-01T02:42:55.254Z,77.24
2018-04-01T02:45:22.149Z,76.62
2018-04-01T02:47:49.079Z,76.37
2018-04-01T02:50:16.007Z,76.09
2018-04-01T02:52:42.934Z,75.94
2018-04-01T02:55:09.831Z,76.12
2018-04-01T02:57:36.750Z,75.80
2018-04-01T03:00:09.526Z,75.98
2018-04-01T03:02:36.445Z,76.03
2018-04-01T03:05:03.356Z,76.04
2018-04-01T03:07:30.309Z,76.51
2018-04-01T03:09:57.219Z,76.59
2018-04-01T03:12:24.144Z,76.75
2018-04-01T03:14:51.120Z,76.59
2018-04-01T03:17:18.034Z,76.56
2018-04-01T03:19:44.987Z,76.39
2018-04-01T03:22:11.900Z,76.68
2018-04-01T03:24:53.981Z,76.94
2018-04-01T03:27:21.808Z,77.32
2018-04-01T03:29:48.718Z,77.62
2018-04-01T03:32:16.517Z,77.93
2018-04-01T03:34:43.447Z,78.36
2018-04-01T03:37:10.371Z,78.23
2018-04-01T03:39:37.323Z,78.09
2018-04-01T03:42:04.264Z,77.91
2018-04-01T03:44:31.141Z,77.23
2018-04-01T03:46:58.087Z,77.15
2018-04-01T03:49:25.026Z,77.08
2018-04-01T03:51:52.038Z,77.10
2018-04-01T03:54:18.968Z,77.38
2018-04-01T03:56:45.870Z,77.47
2018-04-01T03:59:12.854Z,77.62
2018-04-01T04:01:39.782Z,77.52
2018-04-01T04:04:06.680Z,77.71
2018-04-01T04:06:34.585Z,77.88
2018-04-01T04:09:01.496Z,77.87
2018-04-01T04:11:28.520Z,78.04
2018-04-01T04:13:55.430Z,78.12
2018-04-01T04:16:22.443Z,78.29
2018-04-01T04:18:49.372Z,78.14
2018-04-01T04:21:16.540Z,78.33
2018-04-01T04:23:43.467Z,78.38
2018-04-01T04:26:10.339Z,77.96
2018-04-01T04:28:37.463Z,77.74
2018-04-01T04:31:04.386Z,77.69
2018-04-01T04:33:32.238Z,77.54
2018-04-01T04:35:59.188Z,77.35
2018-04-01T04:38:26.089Z,77.24
2018-04-01T04:40:52.986Z,77.56
2018-04-01T04:43:19.890Z,77.66
2018-04-01T04:45:46.780Z,77.75
2018-04-01T04:48:13.733Z,78.17
2018-04-01T04:50:51.190Z,78.35
2018-04-01T04:53:18.362Z,78.45
2018-04-01T04:55:45.382Z,78.41
2018-04-01T04:58:12.950Z,78.46
2018-04-01T05:00:40.272Z,78.37
2018-04-01T05:03:07.244Z,78.40
2018-04-01T05:05:34.328Z,78.34
2018-04-01T05:08:01.305Z,78.15
2018-04-01T05:10:28.310Z,77.98
2018-04-01T05:12:55.306Z,77.57
2018-04-01T05:15:22.268Z,77.75
2018-04-01T05:17:49.429Z,77.42
2018-04-01T05:20:16.431Z,77.04
2018-04-01T05:22:44.231Z,76.81
2018-04-01T05:25:11.192Z,76.97
2018-04-01T05:27:38.157Z,76.97
2018-04-01T05:30:05.175Z,77.10
2018-04-01T05:32:32.148Z,77.23
2018-04-01T05:34:59.092Z,76.85
2018-04-01T05:37:26.077Z,76.95
2018-04-01T05:39:53.074Z,76.96
2018-04-01T05:42:20.096Z,77.08
2018-04-01T05:44:47.083Z,77.08
2018-04-01T05:47:14.009Z,77.25
2018-04-01T05:49:40.971Z,77.24
2018-04-01T05:52:07.920Z,77.34
2018-04-01T05:54:34.926Z,77.40
2018-04-01T05:57:03.808Z,77.25
2018-04-01T05:59:30.758Z,77.26
2018-04-01T06:01:57.725Z,76.57
2018-04-01T06:04:24.747Z,76.36
2018-04-01T06:06:51.706Z,76.36
2018-04-01T06:09:18.685Z,76.63
2018-04-01T06:11:45.680Z,76.88
2018-04-01T06:14:12.720Z,76.95
2018-04-01T06:16:40.721Z,77.19
2018-04-01T06:19:07.743Z,77.40
2018-04-01T06:21:34.729Z,77.43
2018-04-01T06:24:09.823Z,77.43
2018-04-01T06:26:36.776Z,77.50
2018-04-01T06:29:03.741Z,77.55
2018-04-01T06:31:30.742Z,77.46
2018-04-01T06:33:57.705Z,76.46
2018-04-01T06:36:25.173Z,76.72
2018-04-01T06:38:52.109Z,76.82
2018-04-01T06:41:19.068Z,76.96
2018-04-01T06:43:45.985Z,77.24
2018-04-01T06:46:12.907Z,76.83
2018-04-01T06:48:39.851Z,76.34
2018-04-01T06:51:06.751Z,76.11
2018-04-01T06:53:33.689Z,76.09
2018-04-01T06:56:00.595Z,75.57
2018-04-01T06:58:27.543Z,75.36
2018-04-01T07:00:54.477Z,75.11
2018-04-01T07:03:21.429Z,75.62
2018-04-01T07:05:48.311Z,75.71
2018-04-01T07:08:15.241Z,75.99
2018-04-01T07:10:42.184Z,75.92
2018-04-01T07:13:09.103Z,76.03
2018-04-01T07:15:36.947Z,75.89
2018-04-01T07:18:04.247Z,75.75
2018-04-01T07:20:31.192Z,75.84
2018-04-01T07:22:58.282Z,75.91
2018-04-01T07:25:39.995Z,75.91
2018-04-01T07:28:07.033Z,76.08
2018-04-01T07:30:33.965Z,76.28
2018-04-01T07:33:01.002Z,76.20
2018-04-01T07:35:27.999Z,76.02
2018-04-01T07:37:54.999Z,76.01
2018-04-01T07:40:21.939Z,75.99
2018-04-01T07:42:49.861Z,76.05
2018-04-01T07:45:16.918Z,75.72
2018-04-01T07:47:45.050Z,75.48
2018-04-01T07:50:12.225Z,75.65
2018-04-01T07:52:39.296Z,75.54
2018-04-01T07:55:06.291Z,75.56
2018-04-01T07:57:33.283Z,75.63
2018-04-01T08:00:00.963Z,75.46
2018-04-01T08:02:27.983Z,75.50
2018-04-01T08:05:01.950Z,75.14
2018-04-01T08:07:28.902Z,74.88
2018-04-01T08:09:56.952Z,74.25
2018-04-01T08:12:23.958Z,74.04
2018-04-01T08:14:50.906Z,74.00
2018-04-01T08:17:17.863Z,73.75
2018-04-01T08:19:44.823Z,73.96
2018-04-01T08:22:11.791Z,73.77
2018-04-01T08:24:38.762Z,73.69
2018-04-01T08:27:05.695Z,73.65
2018-04-01T08:29:32.615Z,73.46
2018-04-01T08:32:00.283Z,73.39
2018-04-01T08:34:27.195Z,73.08
2018-04-01T08:36:54.220Z,73.26
2018-04-01T08:39:21.165Z,73.12
2018-04-01T08:41:48.857Z,73.35
2018-04-01T08:44:21.407Z,73.39
2018-04-01T08:46:48.327Z,73.37
2018-04-01T08:49:15.259Z,74.19
2018-04-01T08:51:42.207Z,72.77
2018-04-01T08:54:11.083Z,72.70
2018-04-01T08:56:38.013Z,72.96
2018-04-01T08:59:04.971Z,72.94
2018-04-01T09:01:31.895Z,72.71
2018-04-01T09:03:58.824Z,72.82
2018-04-01T09:06:25.789Z,72.95
2018-04-01T09:08:52.799Z,72.88
2018-04-01T09:11:19.778Z,73.18
2018-04-01T09:13:46.746Z,73.34
2018-04-01T09:16:13.684Z,73.24
2018-04-01T09:18:40.641Z,73.33
2018-04-01T09:21:07.854Z,73.06
2018-04-01T09:23:34.806Z,73.29
2018-04-01T09:26:01.729Z,73.00
2018-04-01T09:28:28.630Z,73.22
2018-04-01T09:30:55.564Z,73.38
2018-04-01T09:33:22.481Z,73.44
2018-04-01T09:35:49.461Z,73.53
2018-04-01T09:38:16.380Z,73.45
2018-04-01T09:40:43.322Z,73.43
2018-04-01T09:43:10.255Z,73.43
2018-04-01T09:45:37.196Z,73.25
2018-04-01T09:48:04.190Z,73.02
2018-04-01T09:50:31.129Z,72.88
2018-04-01T09:52:58.118Z,72.75
2018-04-01T09:55:25.811Z,72.78
2018-04-01T09:57:54.499Z,73.10
2018-04-01T10:00:26.202Z,73.13
2018-04-01T10:02:53.680Z,73.12
2018-04-01T10:05:26.183Z,73.27
2018-04-01T10:07:53.616Z,73.22
2018-04-01T10:10:22.499Z,72.55
2018-04-01T10:12:49.992Z,72.34
2018-04-01T10:15:17.469Z,71.62
2018-04-01T10:17:44.967Z,71.21
2018-04-01T10:20:12.505Z,70.69
2018-04-01T10:22:39.908Z,70.56
2018-04-01T10:25:07.367Z,70.17
2018-04-01T10:27:34.842Z,70.06
2018-04-01T10:30:02.293Z,70.14
2018-04-01T10:32:29.760Z,70.01
2018-04-01T10:35:04.088Z,69.49
2018-04-01T10:37:31.518Z,68.41
2018-04-01T10:39:58.965Z,67.46
2018-04-01T10:42:26.518Z,67.27
2018-04-01T10:44:54.035Z,67.03
2018-04-01T10:47:21.456Z,66.96
2018-04-01T10:49:52.711Z,67.04
2018-04-01T10:52:20.244Z,67.65
2018-04-01T10:54:47.178Z,66.23
2018-04-01T10:57:14.279Z,65.41
2018-04-01T10:59:41.209Z,65.84
2018-04-01T11:02:08.114Z,65.66
2018-04-01T11:04:35.090Z,65.82
2018-04-01T11:07:02.040Z,66.03
2018-04-01T11:09:28.986Z,66.47
2018-04-01T11:11:55.916Z,66.89
2018-04-01T11:14:22.854Z,67.13
2018-04-01T11:16:49.852Z,67.22
2018-04-01T11:19:16.808Z,67.32
2018-04-01T11:21:43.747Z,67.19
2018-04-01T11:24:10.684Z,66.93
2018-04-01T11:26:37.603Z,67.03
2018-04-01T11:29:04.526Z,66.72
2018-04-01T11:31:31.947Z,66.70
2018-04-01T11:33:58.925Z,67.03
2018-04-01T11:36:25.864Z,67.15
2018-04-01T11:38:56.953Z,67.00
2018-04-01T11:41:24.185Z,67.26
2018-04-01T11:43:51.158Z,67.47
2018-04-01T11:46:18.182Z,67.55
2018-04-01T11:48:45.222Z,67.47
2018-04-01T11:51:12.212Z,67.10
2018-04-01T11:53:39.238Z,67.12
2018-04-01T11:56:06.235Z,66.54
2018-04-01T11:58:33.270Z,66.34
2018-04-01T12:01:01.083Z,66.04
2018-04-01T12:03:28.386Z,65.29
2018-04-01T12:05:55.397Z,64.64
2018-04-01T12:08:22.488Z,64.63
2018-04-01T12:10:49.432Z,64.21
2018-04-01T12:13:16.450Z,64.67
2018-04-01T12:15:43.496Z,64.47
2018-04-01T12:18:10.659Z,64.24
2018-04-01T12:20:37.736Z,64.41
2018-04-01T12:23:04.786Z,64.27
2018-04-01T12:25:31.842Z,63.31
2018-04-01T12:27:59.906Z,62.64
2018-04-01T12:30:27.006Z,63.09
2018-04-01T12:32:54.900Z,63.06
2018-04-01T12:35:32.558Z,63.63
2018-04-01T12:37:59.580Z,64.16
2018-04-01T12:40:26.604Z,64.50
2018-04-01T12:42:53.514Z,64.05
2018-04-01T12:45:20.477Z,64.40
2018-04-01T12:47:47.382Z,64.00
2018-04-01T12:50:14.328Z,64.27
2018-04-01T12:52:41.918Z,64.50
2018-04-01T12:55:09.616Z,65.06
2018-04-01T12:57:36.562Z,65.62
2018-04-01T13:00:03.510Z,65.94
2018-04-01T13:02:30.664Z,66.21
2018-04-01T13:08:14.588Z,67.37
2018-04-01T13:10:41.572Z,67.01
2018-04-01T13:13:08.583Z,66.95
2018-04-01T13:15:35.484Z,66.25
2018-04-01T13:18:02.454Z,66.88
2018-04-01T13:20:30.092Z,67.08
2018-04-01T13:22:57.081Z,67.20
2018-04-01T13:25:24.066Z,67.74
2018-04-01T13:27:51.004Z,67.84
2018-04-01T13:30:18.043Z,67.28
2018-04-01T13:32:44.962Z,67.00
2018-04-01T13:35:11.901Z,66.49
2018-04-01T13:37:38.844Z,66.66
2018-04-01T13:40:05.782Z,66.57
2018-04-01T13:42:32.706Z,66.54
2018-04-01T13:44:59.658Z,66.37
2018-04-01T13:47:26.590Z,66.22
2018-04-01T13:49:53.536Z,65.91
2018-04-01T13:52:20.514Z,66.04
2018-04-01T13:54:47.453Z,66.08
2018-04-01T13:57:14.396Z,65.74
2018-04-01T13:59:41.359Z,64.57
2018-04-01T14:02:08.332Z,62.50
2018-04-01T14:04:35.425Z,61.35
2018-04-01T14:07:02.322Z,59.48
2018-04-01T14:09:29.312Z,58.57
2018-04-01T14:11:56.250Z,58.81
2018-04-01T14:14:23.250Z,59.31
2018-04-01T14:16:50.162Z,59.42
2018-04-01T14:19:17.132Z,59.34
2018-04-01T14:21:44.101Z,59.76
2018-04-01T14:24:10.996Z,59.32
2018-04-01T14:26:37.954Z,59.15
2018-04-01T14:29:04.905Z,59.61
2018-04-01T14:31:31.814Z,59.56
2018-04-01T14:34:03.706Z,59.60
2018-04-01T14:36:30.656Z,60.06
2018-04-01T14:38:57.630Z,59.84
2018-04-01T14:41:24.761Z,59.90
2018-04-01T14:43:52.562Z,59.96
2018-04-01T14:46:20.988Z,60.14
2018-04-01T14:48:48.982Z,60.39
2018-04-01T14:51:16.572Z,60.59
2018-04-01T14:53:44.054Z,60.70
2018-04-01T14:56:11.066Z,60.74
2018-04-01T14:58:38.014Z,61.37
2018-04-01T15:01:04.926Z,62.03
2018-04-01T15:03:31.901Z,62.52
2018-04-01T15:05:58.845Z,62.29
2018-04-01T15:08:26.638Z,62.24
2018-04-01T15:10:53.618Z,62.41
2018-04-01T15:13:20.559Z,63.10
2018-04-01T15:15:47.475Z,63.78
2018-04-01T15:18:14.383Z,64.26
2018-04-01T15:20:41.330Z,63.67
2018-04-01T15:23:08.272Z,62.56
2018-04-01T15:25:35.244Z,62.46
2018-04-01T15:28:02.271Z,62.77
2018-04-01T15:30:29.342Z,62.90
2018-04-01T15:33:01.312Z,63.03
2018-04-01T15:35:28.325Z,63.50
2018-04-01T15:37:55.298Z,63.77
2018-04-01T15:40:22.250Z,64.17
2018-04-01T15:42:50.182Z,63.85
2018-04-01T15:45:17.145Z,63.91
2018-04-01T15:47:44.105Z,64.16
2018-04-01T15:50:11.141Z,64.62
2018-04-01T15:52:38.058Z,64.88
2018-04-01T15:55:05.075Z,65.16
2018-04-01T15:57:32.096Z,65.13
2018-04-01T15:59:59.051Z,65.10
2018-04-01T16:02:25.963Z,64.90
2018-04-01T16:04:53.157Z,65.14
2018-04-01T16:07:20.194Z,65.26
2018-04-01T16:09:47.163Z,64.71
2018-04-01T16:12:14.145Z,64.47
2018-04-01T16:14:41.714Z,64.75
2018-04-01T16:17:08.670Z,65.14
2018-04-01T16:19:35.709Z,65.73
2018-04-01T16:22:02.672Z,65.89
2018-04-01T16:24:29.584Z,65.92
2018-04-01T16:26:56.750Z,65.98
2018-04-01T16:29:23.695Z,65.73
2018-04-01T16:31:50.822Z,66.03
2018-04-01T16:34:17.818Z,66.12
2018-04-01T16:36:44.816Z,66.01
2018-04-01T16:39:11.809Z,65.75
2018-04-01T16:41:38.858Z,65.88
2018-04-01T16:44:06.275Z,66.22
2018-04-01T16:46:33.219Z,66.37
2018-04-01T16:49:00.249Z,66.44
2018-04-01T16:51:27.264Z,66.45
2018-04-01T16:53:54.190Z,66.66
2018-04-01T16:56:21.202Z,66.48
2018-04-01T16:58:58.108Z,66.51
2018-04-01T17:04:00.384Z,66.82
2018-04-01T17:06:27.380Z,67.18
2018-04-01T17:11:44.676Z,66.66
2018-04-01T17:14:11.636Z,66.25
2018-04-01T17:16:48.525Z,66.35
2018-04-01T17:30:48.624Z,66.52
2018-04-01T17:33:15.837Z,66.39
2018-04-01T17:35:43.647Z,66.54
2018-04-01T17:38:10.750Z,66.38
2018-04-01T17:40:37.693Z,66.18
2018-04-01T17:43:04.637Z,66.28
2018-04-01T17:45:31.615Z,66.41
2018-04-01T17:47:58.599Z,66.51
2018-04-01T17:50:25.614Z,66.44
2018-04-01T17:52:53.186Z,66.59
2018-04-01T17:55:20.725Z,66.69
2018-04-01T17:57:47.745Z,66.86
2018-04-01T18:00:14.749Z,67.01
2018-04-01T18:02:41.691Z,66.73
2018-04-01T18:05:09.364Z,66.78
2018-04-01T18:07:36.580Z,66.67
2018-04-01T18:10:04.679Z,66.53
2018-04-01T18:12:32.658Z,66.28
2018-04-01T18:14:59.662Z,66.08
2018-04-01T18:17:26.685Z,66.08
2018-04-01T18:19:53.673Z,65.40
2018-04-01T18:22:20.689Z,65.11
2018-04-01T18:24:48.731Z,64.95
2018-04-01T18:27:15.716Z,65.02
2018-04-01T18:29:42.710Z,64.60
2018-04-01T18:32:09.735Z,64.81
2018-04-01T18:34:36.938Z,65.37
2018-04-01T18:37:03.899Z,65.64
2018-04-01T18:39:31.143Z,64.64
2018-04-01T18:41:58.101Z,64.50
2018-04-01T18:44:26.976Z,64.61
2018-04-01T18:46:54.701Z,64.65
2018-04-01T18:49:21.732Z,64.73
2018-04-01T18:51:48.989Z,64.93
2018-04-01T18:54:16.666Z,64.95
2018-04-01T18:56:43.618Z,64.85
2018-04-01T18:59:10.601Z,65.08
2018-04-01T19:01:38.395Z,65.04
2018-04-01T19:04:06.263Z,65.06
2018-04-01T19:06:34.323Z,65.17
2018-04-01T19:09:01.387Z,65.01
2018-04-01T19:11:28.401Z,64.90
2018-04-01T19:13:55.479Z,64.85
2018-04-01T19:16:23.121Z,64.89
2018-04-01T19:18:52.187Z,65.19
2018-04-01T19:21:19.719Z,65.27
2018-04-01T19:23:48.790Z,65.23
2018-04-01T19:26:16.339Z,64.80
2018-04-01T19:28:44.246Z,64.86
2018-04-01T19:31:11.816Z,64.86
2018-04-01T19:36:13.329Z,64.57
2018-04-01T19:38:41.027Z,64.56
2018-04-01T19:41:08.583Z,64.51
2018-04-01T19:43:36.091Z,64.31
2018-04-01T19:46:03.639Z,64.16
2018-04-01T19:48:32.191Z,64.00
2018-04-01T19:50:59.684Z,64.09
2018-04-01T19:53:27.308Z,63.64
2018-04-01T19:55:54.868Z,63.88
2018-04-01T19:58:22.434Z,63.44
2018-04-01T20:00:50.803Z,63.49
2018-04-01T20:03:18.365Z,63.42
2018-04-01T20:05:48.204Z,63.58
2018-04-01T20:08:16.069Z,63.44
2018-04-01T20:10:43.618Z,63.52
2018-04-01T20:13:12.427Z,63.64
2018-04-01T20:15:40.079Z,63.69
2018-04-01T20:18:07.953Z,63.87
2018-04-01T20:20:35.466Z,63.70
2018-04-01T20:23:02.972Z,63.85
2018-04-01T20:25:30.571Z,63.87
2018-04-01T20:27:58.047Z,64.07
2018-04-01T20:30:25.945Z,64.24
2018-04-01T20:32:53.532Z,64.24
2018-04-01T20:35:21.036Z,64.34
2018-04-01T20:37:49.466Z,64.20
2018-04-01T20:40:17.236Z,64.17
2018-04-01T20:42:44.734Z,64.28
2018-04-01T20:45:12.333Z,64.04
2018-04-01T20:47:39.822Z,64.02
2018-04-01T20:50:07.973Z,63.73
2018-04-01T20:52:35.501Z,63.78
2018-04-01T20:55:08.107Z,63.81
2018-04-01T20:57:36.369Z,63.63
2018-04-01T21:00:03.899Z,63.62
2018-04-01T21:02:31.722Z,63.66
2018-04-01T21:05:00.265Z,63.53
2018-04-01T21:07:27.909Z,63.52
2018-04-01T21:09:55.461Z,63.79
2018-04-01T21:12:22.942Z,63.90
2018-04-01T21:14:50.676Z,63.99
2018-04-01T21:17:18.393Z,64.16
2018-04-01T21:19:45.909Z,64.00
2018-04-01T21:22:13.421Z,64.23
2018-04-01T21:27:39.491Z,64.50
2018-04-01T21:30:06.984Z,64.79
2018-04-01T21:32:34.702Z,64.97
2018-04-01T21:35:02.377Z,65.10
2018-04-01T21:37:29.931Z,65.32
2018-04-01T21:39:57.456Z,65.31
2018-04-01T21:42:25.008Z,65.45
2018-04-01T21:44:57.301Z,65.68
2018-04-01T21:47:24.945Z,65.77
2018-04-01T21:49:52.513Z,65.87
2018-04-01T21:52:20.108Z,65.84
2018-04-01T21:54:57.264Z,65.93
2018-04-01T21:57:24.801Z,66.20
2018-04-01T21:59:52.303Z,66.40
2018-04-01T22:02:19.913Z,66.31
2018-04-01T22:04:47.481Z,66.52
2018-04-01T22:07:14.980Z,66.58
2018-04-01T22:09:43.334Z,66.78
2018-04-01T22:12:10.783Z,66.97
2018-04-01T22:14:57.564Z,67.18
2018-04-01T22:17:24.998Z,67.21
2018-04-01T22:19:52.566Z,67.39
2018-04-01T22:22:20.040Z,67.45
2018-04-01T22:24:47.560Z,67.53
2018-04-01T22:27:15.042Z,67.74
2018-04-01T22:29:44.886Z,67.85
2018-04-01T22:32:24.120Z,67.94
2018-04-01T22:34:51.620Z,68.21
2018-04-01T22:37:19.896Z,68.10
2018-04-01T22:39:48.208Z,68.24
2018-04-01T22:42:16.340Z,68.34
2018-04-01T22:44:43.864Z,68.48
2018-04-01T22:47:14.724Z,68.64
2018-04-01T22:49:44.040Z,68.81
2018-04-01T22:52:11.502Z,68.84
2018-04-01T22:54:40.182Z,68.74
2018-04-01T22:57:07.665Z,68.84
2018-04-01T22:59:35.132Z,68.79
2018-04-01T23:02:02.610Z,68.88
2018-04-01T23:04:30.111Z,68.92
2018-04-01T23:06:57.576Z,68.94
2018-04-01T23:09:25.032Z,69.12
2018-04-01T23:11:52.480Z,69.41
2018-04-01T23:14:19.966Z,69.48
2018-04-01T23:16:47.434Z,69.36
2018-04-01T23:19:15.121Z,69.40
2018-04-01T23:21:42.600Z,69.58
2018-04-01T23:24:10.097Z,69.64
2018-04-01T23:26:37.900Z,69.72
2018-04-01T23:29:05.339Z,69.98
2018-04-01T23:31:32.786Z,70.32
2018-04-01T23:34:00.280Z,70.62
2018-04-01T23:36:27.765Z,70.87
2018-04-01T23:38:55.223Z,71.02
2018-04-01T23:41:22.677Z,71.27
2018-04-01T23:43:50.208Z,71.27
2018-04-01T23:46:17.686Z,71.00
2018-04-01T23:48:45.119Z,70.98
2018-04-01T23:51:12.605Z,71.11
2018-04-01T23:53:40.034Z,71.05
2018-04-01T23:56:07.492Z,71.07
2018-04-01T23:58:34.970Z,70.98
